sensor_id;sensor_type;location;lat;lon;timestamp;P1;durP1;ratioP1;P2;durP2;ratioP2
47894;SDS011;33653;52.302;8.134;2023-10-19T00:00:44;6.45;;;5.20;;
47894;SDS011;33653;52.302;8.134;2023-10-19T00:03:12;10.85;;;5.93;;
47894;SDS011;33653;52.302;8.134;2023-10-19T00:05:41;9.88;;;5.88;;
47894;SDS011;33653;52.302;8.134;2023-10-19T00:08:10;11.68;;;5.82;;
47894;SDS011;33653;52.302;8.134;2023-10-19T00:10:49;9.05;;;4.88;;
47894;SDS011;33653;52.302;8.134;2023-10-19T00:13:30;10.20;;;5.63;;
47894;SDS011;33653;52.302;8.134;2023-10-19T00:15:58;9.63;;;5.53;;
47894;SDS011;33653;52.302;8.134;2023-10-19T00:18:27;9.13;;;5.93;;
47894;SDS011;33653;52.302;8.134;2023-10-19T00:20:59;11.80;;;6.63;;
47894;SDS011;33653;52.302;8.134;2023-10-19T00:23:47;10.43;;;5.43;;
47894;SDS011;33653;52.302;8.134;2023-10-19T00:26:18;8.48;;;5.53;;
47894;SDS011;33653;52.302;8.134;2023-10-19T00:28:53;9.88;;;5.93;;
47894;SDS011;33653;52.302;8.134;2023-10-19T00:33:54;9.32;;;5.78;;
47894;SDS011;33653;52.302;8.134;2023-10-19T00:36:24;13.10;;;6.80;;
47894;SDS011;33653;52.302;8.134;2023-10-19T00:38:53;10.75;;;5.95;;
47894;SDS011;33653;52.302;8.134;2023-10-19T00:41:25;9.48;;;5.10;;
47894;SDS011;33653;52.302;8.134;2023-10-19T00:43:58;12.48;;;5.78;;
47894;SDS011;33653;52.302;8.134;2023-10-19T00:46:39;13.48;;;6.53;;
47894;SDS011;33653;52.302;8.134;2023-10-19T00:49:11;11.48;;;6.63;;
47894;SDS011;33653;52.302;8.134;2023-10-19T00:51:44;10.13;;;5.22;;
47894;SDS011;33653;52.302;8.134;2023-10-19T00:54:18;10.48;;;6.70;;
47894;SDS011;33653;52.302;8.134;2023-10-19T00:56:57;9.27;;;5.25;;
47894;SDS011;33653;52.302;8.134;2023-10-19T00:59:30;9.35;;;5.88;;
47894;SDS011;33653;52.302;8.134;2023-10-19T01:02:02;11.75;;;6.45;;
47894;SDS011;33653;52.302;8.134;2023-10-19T01:07:18;8.77;;;5.00;;
47894;SDS011;33653;52.302;8.134;2023-10-19T01:09:50;10.07;;;6.10;;
47894;SDS011;33653;52.302;8.134;2023-10-19T01:12:23;10.48;;;7.05;;
47894;SDS011;33653;52.302;8.134;2023-10-19T01:15:08;11.13;;;6.05;;
47894;SDS011;33653;52.302;8.134;2023-10-19T01:17:47;11.32;;;5.55;;
47894;SDS011;33653;52.302;8.134;2023-10-19T01:20:28;10.85;;;5.90;;
47894;SDS011;33653;52.302;8.134;2023-10-19T01:22:59;11.95;;;6.20;;
47894;SDS011;33653;52.302;8.134;2023-10-19T01:25:46;12.98;;;6.90;;
47894;SDS011;33653;52.302;8.134;2023-10-19T01:28:21;12.77;;;7.32;;
47894;SDS011;33653;52.302;8.134;2023-10-19T01:31:16;10.25;;;6.78;;
47894;SDS011;33653;52.302;8.134;2023-10-19T01:33:55;9.50;;;6.40;;
47894;SDS011;33653;52.302;8.134;2023-10-19T01:36:25;22.47;;;6.90;;
47894;SDS011;33653;52.302;8.134;2023-10-19T01:38:55;11.87;;;7.37;;
47894;SDS011;33653;52.302;8.134;2023-10-19T01:41:38;9.07;;;6.88;;
47894;SDS011;33653;52.302;8.134;2023-10-19T01:44:08;11.65;;;6.03;;
47894;SDS011;33653;52.302;8.134;2023-10-19T01:46:41;12.82;;;6.63;;
47894;SDS011;33653;52.302;8.134;2023-10-19T01:49:13;12.77;;;7.75;;
47894;SDS011;33653;52.302;8.134;2023-10-19T01:51:41;10.32;;;6.13;;
47894;SDS011;33653;52.302;8.134;2023-10-19T01:54:11;11.50;;;6.72;;
47894;SDS011;33653;52.302;8.134;2023-10-19T01:56:41;11.63;;;6.63;;
47894;SDS011;33653;52.302;8.134;2023-10-19T01:59:10;11.70;;;7.05;;
47894;SDS011;33653;52.302;8.134;2023-10-19T02:01:38;11.32;;;6.25;;
47894;SDS011;33653;52.302;8.134;2023-10-19T02:04:12;12.55;;;6.88;;
47894;SDS011;33653;52.302;8.134;2023-10-19T02:06:40;11.85;;;6.95;;
47894;SDS011;33653;52.302;8.134;2023-10-19T02:09:12;18.73;;;7.53;;
47894;SDS011;33653;52.302;8.134;2023-10-19T02:11:46;12.77;;;6.70;;
47894;SDS011;33653;52.302;8.134;2023-10-19T02:14:16;13.07;;;7.15;;
47894;SDS011;33653;52.302;8.134;2023-10-19T02:16:55;9.60;;;5.93;;
47894;SDS011;33653;52.302;8.134;2023-10-19T02:21:56;12.73;;;6.93;;
47894;SDS011;33653;52.302;8.134;2023-10-19T02:24:26;11.10;;;7.65;;
47894;SDS011;33653;52.302;8.134;2023-10-19T02:26:55;7.95;;;5.65;;
47894;SDS011;33653;52.302;8.134;2023-10-19T02:29:24;8.77;;;6.05;;
47894;SDS011;33653;52.302;8.134;2023-10-19T02:31:54;14.65;;;6.32;;
47894;SDS011;33653;52.302;8.134;2023-10-19T02:34:24;10.32;;;6.88;;
47894;SDS011;33653;52.302;8.134;2023-10-19T02:36:52;9.23;;;6.10;;
47894;SDS011;33653;52.302;8.134;2023-10-19T02:39:20;9.63;;;6.32;;
47894;SDS011;33653;52.302;8.134;2023-10-19T02:41:54;8.77;;;5.32;;
47894;SDS011;33653;52.302;8.134;2023-10-19T02:44:22;11.40;;;6.13;;
47894;SDS011;33653;52.302;8.134;2023-10-19T02:46:52;8.77;;;5.28;;
47894;SDS011;33653;52.302;8.134;2023-10-19T02:49:35;9.07;;;5.70;;
47894;SDS011;33653;52.302;8.134;2023-10-19T02:52:06;8.82;;;5.55;;
47894;SDS011;33653;52.302;8.134;2023-10-19T02:54:34;10.85;;;5.80;;
47894;SDS011;33653;52.302;8.134;2023-10-19T02:57:03;8.27;;;5.20;;
47894;SDS011;33653;52.302;8.134;2023-10-19T02:59:36;8.60;;;5.07;;
47894;SDS011;33653;52.302;8.134;2023-10-19T03:02:05;7.75;;;5.10;;
47894;SDS011;33653;52.302;8.134;2023-10-19T03:04:44;6.97;;;4.55;;
47894;SDS011;33653;52.302;8.134;2023-10-19T03:10:12;7.82;;;4.88;;
47894;SDS011;33653;52.302;8.134;2023-10-19T03:12:50;7.57;;;4.90;;
47894;SDS011;33653;52.302;8.134;2023-10-19T03:15:19;6.47;;;4.28;;
47894;SDS011;33653;52.302;8.134;2023-10-19T03:17:48;9.07;;;4.85;;
47894;SDS011;33653;52.302;8.134;2023-10-19T03:20:16;6.28;;;4.50;;
47894;SDS011;33653;52.302;8.134;2023-10-19T03:22:49;7.90;;;4.82;;
47894;SDS011;33653;52.302;8.134;2023-10-19T03:25:18;6.68;;;4.03;;
47894;SDS011;33653;52.302;8.134;2023-10-19T03:28:04;6.22;;;4.20;;
47894;SDS011;33653;52.302;8.134;2023-10-19T03:30:35;8.15;;;4.60;;
47894;SDS011;33653;52.302;8.134;2023-10-19T03:33:06;7.82;;;4.75;;
47894;SDS011;33653;52.302;8.134;2023-10-19T03:35:39;7.85;;;4.40;;
47894;SDS011;33653;52.302;8.134;2023-10-19T03:38:10;6.63;;;4.18;;
47894;SDS011;33653;52.302;8.134;2023-10-19T03:40:50;7.55;;;4.57;;
47894;SDS011;33653;52.302;8.134;2023-10-19T03:43:25;6.47;;;4.40;;
47894;SDS011;33653;52.302;8.134;2023-10-19T03:45:54;6.45;;;4.45;;
47894;SDS011;33653;52.302;8.134;2023-10-19T03:48:22;5.88;;;4.28;;
47894;SDS011;33653;52.302;8.134;2023-10-19T03:50:53;7.97;;;4.47;;
47894;SDS011;33653;52.302;8.134;2023-10-19T03:53:23;7.10;;;4.30;;
47894;SDS011;33653;52.302;8.134;2023-10-19T03:55:51;8.63;;;4.80;;
47894;SDS011;33653;52.302;8.134;2023-10-19T03:58:24;11.55;;;5.40;;
47894;SDS011;33653;52.302;8.134;2023-10-19T04:00:56;7.78;;;4.80;;
47894;SDS011;33653;52.302;8.134;2023-10-19T04:03:28;5.82;;;4.13;;
47894;SDS011;33653;52.302;8.134;2023-10-19T04:05:58;7.85;;;4.85;;
47894;SDS011;33653;52.302;8.134;2023-10-19T04:08:27;8.15;;;4.75;;
47894;SDS011;33653;52.302;8.134;2023-10-19T04:10:58;7.57;;;4.60;;
47894;SDS011;33653;52.302;8.134;2023-10-19T04:13:35;7.63;;;4.65;;
47894;SDS011;33653;52.302;8.134;2023-10-19T04:16:03;7.32;;;4.80;;
47894;SDS011;33653;52.302;8.134;2023-10-19T04:18:36;8.40;;;4.63;;
47894;SDS011;33653;52.302;8.134;2023-10-19T04:21:05;6.45;;;4.35;;
47894;SDS011;33653;52.302;8.134;2023-10-19T04:23:34;8.40;;;4.53;;
47894;SDS011;33653;52.302;8.134;2023-10-19T04:26:02;8.25;;;4.88;;
47894;SDS011;33653;52.302;8.134;2023-10-19T04:28:38;9.60;;;5.10;;
47894;SDS011;33653;52.302;8.134;2023-10-19T04:31:12;7.00;;;4.28;;
47894;SDS011;33653;52.302;8.134;2023-10-19T04:33:43;6.13;;;3.58;;
47894;SDS011;33653;52.302;8.134;2023-10-19T04:36:13;9.68;;;4.68;;
47894;SDS011;33653;52.302;8.134;2023-10-19T04:38:41;8.65;;;4.63;;
47894;SDS011;33653;52.302;8.134;2023-10-19T04:41:11;6.80;;;4.20;;
47894;SDS011;33653;52.302;8.134;2023-10-19T04:43:39;7.55;;;4.93;;
47894;SDS011;33653;52.302;8.134;2023-10-19T04:46:10;8.10;;;4.88;;
47894;SDS011;33653;52.302;8.134;2023-10-19T04:48:39;6.93;;;4.32;;
47894;SDS011;33653;52.302;8.134;2023-10-19T04:51:11;6.25;;;4.63;;
47894;SDS011;33653;52.302;8.134;2023-10-19T04:53:39;6.72;;;4.57;;
47894;SDS011;33653;52.302;8.134;2023-10-19T04:56:07;6.95;;;4.10;;
47894;SDS011;33653;52.302;8.134;2023-10-19T04:58:39;8.70;;;4.35;;
47894;SDS011;33653;52.302;8.134;2023-10-19T05:01:08;6.95;;;4.15;;
47894;SDS011;33653;52.302;8.134;2023-10-19T05:03:39;8.10;;;3.88;;
47894;SDS011;33653;52.302;8.134;2023-10-19T05:06:07;4.95;;;3.95;;
47894;SDS011;33653;52.302;8.134;2023-10-19T05:08:37;8.10;;;4.43;;
47894;SDS011;33653;52.302;8.134;2023-10-19T05:11:06;6.40;;;4.40;;
47894;SDS011;33653;52.302;8.134;2023-10-19T05:13:35;8.02;;;4.47;;
47894;SDS011;33653;52.302;8.134;2023-10-19T05:16:03;7.55;;;4.63;;
47894;SDS011;33653;52.302;8.134;2023-10-19T05:18:31;6.90;;;4.18;;
47894;SDS011;33653;52.302;8.134;2023-10-19T05:20:59;5.25;;;3.92;;
47894;SDS011;33653;52.302;8.134;2023-10-19T05:23:27;7.13;;;4.38;;
47894;SDS011;33653;52.302;8.134;2023-10-19T05:26:00;7.35;;;4.85;;
47894;SDS011;33653;52.302;8.134;2023-10-19T05:28:30;5.65;;;3.72;;
47894;SDS011;33653;52.302;8.134;2023-10-19T05:30:59;6.85;;;4.00;;
47894;SDS011;33653;52.302;8.134;2023-10-19T05:33:27;6.25;;;3.92;;
47894;SDS011;33653;52.302;8.134;2023-10-19T05:35:56;7.68;;;4.57;;
47894;SDS011;33653;52.302;8.134;2023-10-19T05:38:25;6.45;;;3.85;;
47894;SDS011;33653;52.302;8.134;2023-10-19T05:40:54;5.18;;;3.85;;
47894;SDS011;33653;52.302;8.134;2023-10-19T05:43:25;4.35;;;3.33;;
47894;SDS011;33653;52.302;8.134;2023-10-19T05:45:53;6.47;;;4.38;;
47894;SDS011;33653;52.302;8.134;2023-10-19T05:48:21;5.43;;;3.80;;
47894;SDS011;33653;52.302;8.134;2023-10-19T05:50:52;6.03;;;4.10;;
47894;SDS011;33653;52.302;8.134;2023-10-19T05:53:21;7.20;;;4.43;;
47894;SDS011;33653;52.302;8.134;2023-10-19T05:55:49;5.63;;;3.92;;
47894;SDS011;33653;52.302;8.134;2023-10-19T05:58:17;5.80;;;4.22;;
47894;SDS011;33653;52.302;8.134;2023-10-19T06:00:47;6.72;;;3.75;;
47894;SDS011;33653;52.302;8.134;2023-10-19T06:03:19;6.03;;;4.22;;
47894;SDS011;33653;52.302;8.134;2023-10-19T06:05:47;7.53;;;4.03;;
47894;SDS011;33653;52.302;8.134;2023-10-19T06:08:15;7.50;;;4.07;;
47894;SDS011;33653;52.302;8.134;2023-10-19T06:10:44;7.28;;;4.70;;
47894;SDS011;33653;52.302;8.134;2023-10-19T06:13:19;7.28;;;4.45;;
47894;SDS011;33653;52.302;8.134;2023-10-19T06:15:48;5.35;;;4.05;;
47894;SDS011;33653;52.302;8.134;2023-10-19T06:18:17;6.70;;;4.20;;
47894;SDS011;33653;52.302;8.134;2023-10-19T06:20:45;6.72;;;4.40;;
47894;SDS011;33653;52.302;8.134;2023-10-19T06:23:14;9.18;;;4.45;;
47894;SDS011;33653;52.302;8.134;2023-10-19T06:25:44;6.18;;;3.78;;
47894;SDS011;33653;52.302;8.134;2023-10-19T06:28:12;6.32;;;4.25;;
47894;SDS011;33653;52.302;8.134;2023-10-19T06:30:42;6.72;;;4.28;;
47894;SDS011;33653;52.302;8.134;2023-10-19T06:33:10;7.32;;;4.65;;
47894;SDS011;33653;52.302;8.134;2023-10-19T06:35:38;5.60;;;3.88;;
47894;SDS011;33653;52.302;8.134;2023-10-19T06:38:07;7.65;;;3.97;;
47894;SDS011;33653;52.302;8.134;2023-10-19T06:40:36;5.78;;;4.30;;
47894;SDS011;33653;52.302;8.134;2023-10-19T06:43:04;5.10;;;3.60;;
47894;SDS011;33653;52.302;8.134;2023-10-19T06:45:33;5.47;;;3.55;;
47894;SDS011;33653;52.302;8.134;2023-10-19T06:48:01;5.35;;;4.05;;
47894;SDS011;33653;52.302;8.134;2023-10-19T06:50:31;6.20;;;3.95;;
47894;SDS011;33653;52.302;8.134;2023-10-19T06:52:59;8.07;;;4.72;;
47894;SDS011;33653;52.302;8.134;2023-10-19T06:55:27;5.55;;;3.67;;
47894;SDS011;33653;52.302;8.134;2023-10-19T06:57:55;7.72;;;4.32;;
47894;SDS011;33653;52.302;8.134;2023-10-19T07:00:23;7.95;;;4.80;;
47894;SDS011;33653;52.302;8.134;2023-10-19T07:02:55;8.10;;;4.68;;
47894;SDS011;33653;52.302;8.134;2023-10-19T07:05:24;7.95;;;4.22;;
47894;SDS011;33653;52.302;8.134;2023-10-19T07:07:57;7.97;;;4.53;;
47894;SDS011;33653;52.302;8.134;2023-10-19T07:10:27;6.70;;;4.38;;
47894;SDS011;33653;52.302;8.134;2023-10-19T07:12:55;6.85;;;4.45;;
47894;SDS011;33653;52.302;8.134;2023-10-19T07:15:25;8.75;;;4.97;;
47894;SDS011;33653;52.302;8.134;2023-10-19T07:17:54;8.20;;;4.60;;
47894;SDS011;33653;52.302;8.134;2023-10-19T07:20:23;7.43;;;4.60;;
47894;SDS011;33653;52.302;8.134;2023-10-19T07:23:03;5.22;;;3.88;;
47894;SDS011;33653;52.302;8.134;2023-10-19T07:25:37;7.80;;;4.80;;
47894;SDS011;33653;52.302;8.134;2023-10-19T07:28:11;9.88;;;5.30;;
47894;SDS011;33653;52.302;8.134;2023-10-19T07:30:40;10.18;;;6.50;;
47894;SDS011;33653;52.302;8.134;2023-10-19T07:35:46;15.23;;;8.07;;
47894;SDS011;33653;52.302;8.134;2023-10-19T07:38:15;14.43;;;7.97;;
47894;SDS011;33653;52.302;8.134;2023-10-19T07:40:49;11.70;;;6.85;;
47894;SDS011;33653;52.302;8.134;2023-10-19T07:43:20;18.40;;;8.63;;
47894;SDS011;33653;52.302;8.134;2023-10-19T07:45:49;9.85;;;5.50;;
47894;SDS011;33653;52.302;8.134;2023-10-19T07:48:19;8.52;;;5.18;;
47894;SDS011;33653;52.302;8.134;2023-10-19T07:50:47;7.20;;;5.18;;
47894;SDS011;33653;52.302;8.134;2023-10-19T07:53:15;7.43;;;4.20;;
47894;SDS011;33653;52.302;8.134;2023-10-19T07:55:44;5.55;;;4.00;;
47894;SDS011;33653;52.302;8.134;2023-10-19T07:58:12;8.48;;;5.22;;
47894;SDS011;33653;52.302;8.134;2023-10-19T08:03:14;6.28;;;4.15;;
47894;SDS011;33653;52.302;8.134;2023-10-19T08:05:43;7.80;;;4.88;;
47894;SDS011;33653;52.302;8.134;2023-10-19T08:08:11;7.78;;;5.40;;
47894;SDS011;33653;52.302;8.134;2023-10-19T08:10:39;7.82;;;4.57;;
47894;SDS011;33653;52.302;8.134;2023-10-19T08:13:07;5.72;;;4.13;;
47894;SDS011;33653;52.302;8.134;2023-10-19T08:15:35;7.32;;;5.22;;
47894;SDS011;33653;52.302;8.134;2023-10-19T08:18:04;8.70;;;5.88;;
47894;SDS011;33653;52.302;8.134;2023-10-19T08:20:33;19.23;;;12.02;;
47894;SDS011;33653;52.302;8.134;2023-10-19T08:23:04;10.45;;;6.68;;
47894;SDS011;33653;52.302;8.134;2023-10-19T08:25:33;9.52;;;5.63;;
47894;SDS011;33653;52.302;8.134;2023-10-19T08:28:21;6.40;;;5.35;;
47894;SDS011;33653;52.302;8.134;2023-10-19T08:30:50;6.35;;;4.65;;
47894;SDS011;33653;52.302;8.134;2023-10-19T08:33:27;9.27;;;4.93;;
47894;SDS011;33653;52.302;8.134;2023-10-19T08:35:57;10.05;;;5.80;;
47894;SDS011;33653;52.302;8.134;2023-10-19T08:38:27;9.60;;;5.65;;
47894;SDS011;33653;52.302;8.134;2023-10-19T08:40:56;7.78;;;4.95;;
47894;SDS011;33653;52.302;8.134;2023-10-19T08:43:25;7.78;;;5.40;;
47894;SDS011;33653;52.302;8.134;2023-10-19T08:45:56;10.20;;;5.72;;
47894;SDS011;33653;52.302;8.134;2023-10-19T08:48:26;7.45;;;5.18;;
47894;SDS011;33653;52.302;8.134;2023-10-19T08:50:56;8.18;;;5.28;;
47894;SDS011;33653;52.302;8.134;2023-10-19T08:53:24;7.28;;;4.45;;
47894;SDS011;33653;52.302;8.134;2023-10-19T08:55:55;8.32;;;5.50;;
47894;SDS011;33653;52.302;8.134;2023-10-19T08:58:26;9.43;;;5.60;;
47894;SDS011;33653;52.302;8.134;2023-10-19T09:00:54;7.60;;;4.85;;
47894;SDS011;33653;52.302;8.134;2023-10-19T09:03:33;7.47;;;5.63;;
47894;SDS011;33653;52.302;8.134;2023-10-19T09:06:02;8.02;;;5.90;;
47894;SDS011;33653;52.302;8.134;2023-10-19T09:08:32;10.90;;;5.60;;
47894;SDS011;33653;52.302;8.134;2023-10-19T09:11:07;9.45;;;5.63;;
47894;SDS011;33653;52.302;8.134;2023-10-19T09:13:44;7.10;;;5.10;;
47894;SDS011;33653;52.302;8.134;2023-10-19T09:16:17;8.10;;;5.07;;
47894;SDS011;33653;52.302;8.134;2023-10-19T09:18:48;8.25;;;5.82;;
47894;SDS011;33653;52.302;8.134;2023-10-19T09:21:17;8.02;;;5.28;;
47894;SDS011;33653;52.302;8.134;2023-10-19T09:23:54;8.88;;;5.68;;
47894;SDS011;33653;52.302;8.134;2023-10-19T09:26:24;7.80;;;5.10;;
47894;SDS011;33653;52.302;8.134;2023-10-19T09:28:52;7.20;;;4.75;;
47894;SDS011;33653;52.302;8.134;2023-10-19T09:31:23;8.27;;;5.00;;
47894;SDS011;33653;52.302;8.134;2023-10-19T09:33:53;7.38;;;5.13;;
47894;SDS011;33653;52.302;8.134;2023-10-19T09:36:21;8.68;;;5.47;;
47894;SDS011;33653;52.302;8.134;2023-10-19T09:38:50;7.93;;;5.28;;
47894;SDS011;33653;52.302;8.134;2023-10-19T09:41:19;11.02;;;5.82;;
47894;SDS011;33653;52.302;8.134;2023-10-19T09:43:49;7.40;;;4.88;;
47894;SDS011;33653;52.302;8.134;2023-10-19T09:46:22;7.80;;;4.60;;
47894;SDS011;33653;52.302;8.134;2023-10-19T09:48:56;7.15;;;4.72;;
47894;SDS011;33653;52.302;8.134;2023-10-19T09:51:25;6.38;;;4.65;;
47894;SDS011;33653;52.302;8.134;2023-10-19T09:53:56;8.05;;;4.60;;
47894;SDS011;33653;52.302;8.134;2023-10-19T09:56:38;6.50;;;4.72;;
47894;SDS011;33653;52.302;8.134;2023-10-19T09:59:22;5.95;;;4.57;;
47894;SDS011;33653;52.302;8.134;2023-10-19T10:02:10;6.63;;;4.35;;
47894;SDS011;33653;52.302;8.134;2023-10-19T10:04:41;6.50;;;4.78;;
47894;SDS011;33653;52.302;8.134;2023-10-19T10:07:12;8.48;;;5.90;;
47894;SDS011;33653;52.302;8.134;2023-10-19T10:09:46;9.50;;;6.57;;
47894;SDS011;33653;52.302;8.134;2023-10-19T10:12:16;8.60;;;5.75;;
47894;SDS011;33653;52.302;8.134;2023-10-19T10:15:01;9.57;;;5.82;;
47894;SDS011;33653;52.302;8.134;2023-10-19T10:17:36;9.48;;;5.70;;
47894;SDS011;33653;52.302;8.134;2023-10-19T10:22:40;8.00;;;5.18;;
47894;SDS011;33653;52.302;8.134;2023-10-19T10:25:24;11.73;;;5.78;;
47894;SDS011;33653;52.302;8.134;2023-10-19T10:27:55;10.18;;;6.72;;
47894;SDS011;33653;52.302;8.134;2023-10-19T10:30:23;8.07;;;5.65;;
47894;SDS011;33653;52.302;8.134;2023-10-19T10:32:52;10.73;;;6.45;;
47894;SDS011;33653;52.302;8.134;2023-10-19T10:38:06;9.43;;;5.40;;
47894;SDS011;33653;52.302;8.134;2023-10-19T10:40:44;10.00;;;5.43;;
47894;SDS011;33653;52.302;8.134;2023-10-19T10:43:12;18.83;;;9.43;;
47894;SDS011;33653;52.302;8.134;2023-10-19T10:45:40;13.30;;;8.15;;
47894;SDS011;33653;52.302;8.134;2023-10-19T10:48:12;12.88;;;8.73;;
47894;SDS011;33653;52.302;8.134;2023-10-19T10:50:44;10.82;;;7.70;;
47894;SDS011;33653;52.302;8.134;2023-10-19T10:53:13;14.25;;;8.98;;
47894;SDS011;33653;52.302;8.134;2023-10-19T10:55:45;13.98;;;8.43;;
47894;SDS011;33653;52.302;8.134;2023-10-19T10:58:17;10.45;;;7.57;;
47894;SDS011;33653;52.302;8.134;2023-10-19T11:00:46;12.32;;;9.32;;
47894;SDS011;33653;52.302;8.134;2023-10-19T11:03:16;13.15;;;9.05;;
47894;SDS011;33653;52.302;8.134;2023-10-19T11:05:44;7.90;;;5.97;;
47894;SDS011;33653;52.302;8.134;2023-10-19T11:08:13;13.17;;;8.63;;
47894;SDS011;33653;52.302;8.134;2023-10-19T11:10:45;18.23;;;13.88;;
47894;SDS011;33653;52.302;8.134;2023-10-19T11:13:15;16.88;;;11.23;;
47894;SDS011;33653;52.302;8.134;2023-10-19T11:21:07;11.73;;;6.60;;
47894;SDS011;33653;52.302;8.134;2023-10-19T11:26:10;7.30;;;5.07;;
47894;SDS011;33653;52.302;8.134;2023-10-19T11:28:41;7.78;;;4.72;;
47894;SDS011;33653;52.302;8.134;2023-10-19T11:31:19;7.10;;;5.15;;
47894;SDS011;33653;52.302;8.134;2023-10-19T11:33:51;7.25;;;5.00;;
47894;SDS011;33653;52.302;8.134;2023-10-19T11:36:21;6.55;;;5.25;;
47894;SDS011;33653;52.302;8.134;2023-10-19T11:38:51;9.10;;;6.10;;
47894;SDS011;33653;52.302;8.134;2023-10-19T11:41:19;11.43;;;7.30;;
47894;SDS011;33653;52.302;8.134;2023-10-19T11:43:48;11.25;;;7.25;;
47894;SDS011;33653;52.302;8.134;2023-10-19T11:46:17;12.07;;;7.82;;
47894;SDS011;33653;52.302;8.134;2023-10-19T11:48:45;13.25;;;9.00;;
47894;SDS011;33653;52.302;8.134;2023-10-19T11:51:13;8.88;;;6.97;;
47894;SDS011;33653;52.302;8.134;2023-10-19T11:53:42;12.93;;;8.60;;
47894;SDS011;33653;52.302;8.134;2023-10-19T11:56:10;7.82;;;5.20;;
47894;SDS011;33653;52.302;8.134;2023-10-19T11:58:43;10.48;;;6.85;;
47894;SDS011;33653;52.302;8.134;2023-10-19T12:01:14;8.73;;;6.20;;
47894;SDS011;33653;52.302;8.134;2023-10-19T12:03:44;10.93;;;8.30;;
47894;SDS011;33653;52.302;8.134;2023-10-19T12:06:13;11.45;;;8.82;;
47894;SDS011;33653;52.302;8.134;2023-10-19T12:08:46;9.07;;;6.55;;
47894;SDS011;33653;52.302;8.134;2023-10-19T12:11:15;8.43;;;6.97;;
47894;SDS011;33653;52.302;8.134;2023-10-19T12:13:45;16.77;;;11.82;;
47894;SDS011;33653;52.302;8.134;2023-10-19T12:16:14;12.30;;;8.15;;
47894;SDS011;33653;52.302;8.134;2023-10-19T12:18:44;12.48;;;6.82;;
47894;SDS011;33653;52.302;8.134;2023-10-19T12:21:13;10.13;;;6.82;;
47894;SDS011;33653;52.302;8.134;2023-10-19T12:23:42;8.32;;;5.80;;
47894;SDS011;33653;52.302;8.134;2023-10-19T12:26:11;10.18;;;6.75;;
47894;SDS011;33653;52.302;8.134;2023-10-19T12:28:40;10.05;;;6.72;;
47894;SDS011;33653;52.302;8.134;2023-10-19T12:31:11;8.23;;;5.85;;
47894;SDS011;33653;52.302;8.134;2023-10-19T12:33:39;10.65;;;6.13;;
47894;SDS011;33653;52.302;8.134;2023-10-19T12:36:08;10.52;;;6.22;;
47894;SDS011;33653;52.302;8.134;2023-10-19T12:38:55;9.77;;;6.22;;
47894;SDS011;33653;52.302;8.134;2023-10-19T12:41:24;9.50;;;5.93;;
47894;SDS011;33653;52.302;8.134;2023-10-19T12:43:52;9.52;;;7.10;;
47894;SDS011;33653;52.302;8.134;2023-10-19T12:46:35;11.55;;;8.23;;
47894;SDS011;33653;52.302;8.134;2023-10-19T12:49:05;10.90;;;7.95;;
47894;SDS011;33653;52.302;8.134;2023-10-19T12:51:40;8.70;;;7.25;;
47894;SDS011;33653;52.302;8.134;2023-10-19T12:54:09;10.07;;;7.72;;
47894;SDS011;33653;52.302;8.134;2023-10-19T12:56:38;11.00;;;7.38;;
47894;SDS011;33653;52.302;8.134;2023-10-19T12:59:06;11.98;;;6.05;;
47894;SDS011;33653;52.302;8.134;2023-10-19T13:01:34;9.57;;;6.20;;
47894;SDS011;33653;52.302;8.134;2023-10-19T13:04:03;12.27;;;9.40;;
47894;SDS011;33653;52.302;8.134;2023-10-19T13:06:41;14.85;;;8.38;;
47894;SDS011;33653;52.302;8.134;2023-10-19T13:09:09;8.30;;;5.68;;
47894;SDS011;33653;52.302;8.134;2023-10-19T13:11:38;7.63;;;5.30;;
47894;SDS011;33653;52.302;8.134;2023-10-19T13:14:06;7.45;;;5.88;;
47894;SDS011;33653;52.302;8.134;2023-10-19T13:16:35;10.95;;;6.25;;
47894;SDS011;33653;52.302;8.134;2023-10-19T13:19:03;8.80;;;5.60;;
47894;SDS011;33653;52.302;8.134;2023-10-19T13:21:40;9.88;;;6.03;;
47894;SDS011;33653;52.302;8.134;2023-10-19T13:24:09;12.55;;;6.28;;
47894;SDS011;33653;52.302;8.134;2023-10-19T13:26:37;11.45;;;5.95;;
47894;SDS011;33653;52.302;8.134;2023-10-19T13:29:07;10.57;;;6.30;;
47894;SDS011;33653;52.302;8.134;2023-10-19T13:31:35;19.88;;;10.48;;
47894;SDS011;33653;52.302;8.134;2023-10-19T13:34:04;16.77;;;12.32;;
47894;SDS011;33653;52.302;8.134;2023-10-19T13:36:37;17.25;;;13.30;;
47894;SDS011;33653;52.302;8.134;2023-10-19T13:39:06;14.55;;;10.32;;
47894;SDS011;33653;52.302;8.134;2023-10-19T13:41:40;9.65;;;7.43;;
47894;SDS011;33653;52.302;8.134;2023-10-19T13:44:07;14.25;;;9.50;;
47894;SDS011;33653;52.302;8.134;2023-10-19T13:46:35;14.68;;;11.52;;
47894;SDS011;33653;52.302;8.134;2023-10-19T13:49:04;13.32;;;9.50;;
47894;SDS011;33653;52.302;8.134;2023-10-19T13:51:32;14.57;;;9.80;;
47894;SDS011;33653;52.302;8.134;2023-10-19T13:54:00;14.63;;;7.30;;
47894;SDS011;33653;52.302;8.134;2023-10-19T13:56:28;17.80;;;12.23;;
47894;SDS011;33653;52.302;8.134;2023-10-19T13:58:56;19.05;;;13.98;;
47894;SDS011;33653;52.302;8.134;2023-10-19T14:01:26;15.30;;;7.85;;
47894;SDS011;33653;52.302;8.134;2023-10-19T14:03:55;12.87;;;9.13;;
47894;SDS011;33653;52.302;8.134;2023-10-19T14:06:24;10.23;;;6.57;;
47894;SDS011;33653;52.302;8.134;2023-10-19T14:08:52;14.23;;;8.90;;
47894;SDS011;33653;52.302;8.134;2023-10-19T14:11:21;11.00;;;7.97;;
47894;SDS011;33653;52.302;8.134;2023-10-19T14:13:50;13.60;;;8.93;;
47894;SDS011;33653;52.302;8.134;2023-10-19T14:16:19;12.55;;;8.15;;
47894;SDS011;33653;52.302;8.134;2023-10-19T14:18:48;10.23;;;6.68;;
47894;SDS011;33653;52.302;8.134;2023-10-19T14:21:16;9.98;;;6.90;;
47894;SDS011;33653;52.302;8.134;2023-10-19T14:23:46;8.60;;;6.03;;
47894;SDS011;33653;52.302;8.134;2023-10-19T14:26:15;8.88;;;6.10;;
47894;SDS011;33653;52.302;8.134;2023-10-19T14:28:44;9.82;;;6.80;;
47894;SDS011;33653;52.302;8.134;2023-10-19T14:31:13;10.43;;;7.07;;
47894;SDS011;33653;52.302;8.134;2023-10-19T14:33:41;13.05;;;7.78;;
47894;SDS011;33653;52.302;8.134;2023-10-19T14:36:09;11.70;;;7.32;;
47894;SDS011;33653;52.302;8.134;2023-10-19T14:38:37;9.77;;;6.63;;
47894;SDS011;33653;52.302;8.134;2023-10-19T14:41:06;50.42;;;27.30;;
47894;SDS011;33653;52.302;8.134;2023-10-19T14:43:36;16.40;;;7.97;;
47894;SDS011;33653;52.302;8.134;2023-10-19T14:46:05;10.35;;;6.88;;
47894;SDS011;33653;52.302;8.134;2023-10-19T14:48:34;15.05;;;9.43;;
47894;SDS011;33653;52.302;8.134;2023-10-19T14:51:03;10.77;;;8.48;;
47894;SDS011;33653;52.302;8.134;2023-10-19T14:53:33;12.55;;;8.52;;
47894;SDS011;33653;52.302;8.134;2023-10-19T14:56:01;13.55;;;8.68;;
47894;SDS011;33653;52.302;8.134;2023-10-19T14:58:29;11.82;;;8.45;;
47894;SDS011;33653;52.302;8.134;2023-10-19T15:00:58;10.80;;;6.97;;
47894;SDS011;33653;52.302;8.134;2023-10-19T15:03:27;14.82;;;9.52;;
47894;SDS011;33653;52.302;8.134;2023-10-19T15:05:56;12.15;;;8.93;;
47894;SDS011;33653;52.302;8.134;2023-10-19T15:08:26;10.70;;;6.95;;
47894;SDS011;33653;52.302;8.134;2023-10-19T15:10:58;10.77;;;7.38;;
47894;SDS011;33653;52.302;8.134;2023-10-19T15:13:27;28.92;;;18.52;;
47894;SDS011;33653;52.302;8.134;2023-10-19T15:15:55;18.65;;;10.52;;
47894;SDS011;33653;52.302;8.134;2023-10-19T15:18:23;23.98;;;14.90;;
47894;SDS011;33653;52.302;8.134;2023-10-19T15:20:53;17.55;;;11.60;;
47894;SDS011;33653;52.302;8.134;2023-10-19T15:23:21;29.77;;;17.77;;
47894;SDS011;33653;52.302;8.134;2023-10-19T15:25:50;25.90;;;14.27;;
47894;SDS011;33653;52.302;8.134;2023-10-19T15:28:18;31.48;;;20.58;;
47894;SDS011;33653;52.302;8.134;2023-10-19T15:30:46;27.08;;;17.35;;